sensor_id;sensor_type;location;lat;lon;timestamp;P1;durP1;ratioP1;P2;durP2;ratioP2
10365;SDS011;5229;41.820;23.490;2022-07-23T00:01:37;4.27;;;3.57;;
10365;SDS011;5229;41.820;23.490;2022-07-23T00:04:04;4.13;;;3.73;;
10365;SDS011;5229;41.820;23.490;2022-07-23T00:06:31;5.83;;;3.77;;
10365;SDS011;5229;41.820;23.490;2022-07-23T00:08:58;4.37;;;3.67;;
10365;SDS011;5229;41.820;23.490;2022-07-23T00:11:24;8.53;;;3.80;;
10365;SDS011;5229;41.820;23.490;2022-07-23T00:13:51;4.63;;;3.43;;
10365;SDS011;5229;41.820;23.490;2022-07-23T00:16:20;4.90;;;3.80;;
10365;SDS011;5229;41.820;23.490;2022-07-23T00:18:48;3.67;;;3.37;;
10365;SDS011;5229;41.820;23.490;2022-07-23T00:21:15;4.23;;;3.57;;
10365;SDS011;5229;41.820;23.490;2022-07-23T00:23:42;5.33;;;3.93;;
10365;SDS011;5229;41.820;23.490;2022-07-23T00:26:08;4.07;;;3.77;;
10365;SDS011;5229;41.820;23.490;2022-07-23T00:28:35;4.20;;;3.80;;
10365;SDS011;5229;41.820;23.490;2022-07-23T00:31:02;3.67;;;3.37;;
10365;SDS011;5229;41.820;23.490;2022-07-23T00:33:29;4.80;;;3.33;;
10365;SDS011;5229;41.820;23.490;2022-07-23T00:35:57;7.90;;;3.50;;
10365;SDS011;5229;41.820;23.490;2022-07-23T00:38:24;5.00;;;3.97;;
10365;SDS011;5229;41.820;23.490;2022-07-23T00:40:51;4.20;;;3.70;;
10365;SDS011;5229;41.820;23.490;2022-07-23T00:43:19;4.60;;;4.03;;
10365;SDS011;5229;41.820;23.490;2022-07-23T00:45:46;6.13;;;3.80;;
10365;SDS011;5229;41.820;23.490;2022-07-23T00:48:13;3.67;;;3.37;;
10365;SDS011;5229;41.820;23.490;2022-07-23T00:50:40;6.10;;;4.30;;
10365;SDS011;5229;41.820;23.490;2022-07-23T00:53:08;4.40;;;3.67;;
10365;SDS011;5229;41.820;23.490;2022-07-23T00:55:35;4.83;;;3.77;;
10365;SDS011;5229;41.820;23.490;2022-07-23T00:58:02;6.57;;;3.70;;
10365;SDS011;5229;41.820;23.490;2022-07-23T01:00:29;4.90;;;3.47;;
10365;SDS011;5229;41.820;23.490;2022-07-23T01:02:56;5.67;;;4.00;;
10365;SDS011;5229;41.820;23.490;2022-07-23T01:05:23;6.63;;;3.67;;
10365;SDS011;5229;41.820;23.490;2022-07-23T01:07:50;5.83;;;3.80;;
10365;SDS011;5229;41.820;23.490;2022-07-23T01:10:19;6.17;;;4.60;;
10365;SDS011;5229;41.820;23.490;2022-07-23T01:12:59;3.97;;;3.50;;
10365;SDS011;5229;41.820;23.490;2022-07-23T01:15:27;6.97;;;4.27;;
10365;SDS011;5229;41.820;23.490;2022-07-23T01:17:54;4.70;;;3.70;;
10365;SDS011;5229;41.820;23.490;2022-07-23T01:20:21;4.70;;;3.77;;
10365;SDS011;5229;41.820;23.490;2022-07-23T01:22:50;4.27;;;3.87;;
10365;SDS011;5229;41.820;23.490;2022-07-23T01:25:17;6.63;;;3.67;;
10365;SDS011;5229;41.820;23.490;2022-07-23T01:27:44;6.47;;;3.93;;
10365;SDS011;5229;41.820;23.490;2022-07-23T01:30:11;4.23;;;3.40;;
10365;SDS011;5229;41.820;23.490;2022-07-23T01:32:39;4.77;;;3.70;;
10365;SDS011;5229;41.820;23.490;2022-07-23T01:35:06;4.83;;;3.27;;
10365;SDS011;5229;41.820;23.490;2022-07-23T01:37:34;7.80;;;3.67;;
10365;SDS011;5229;41.820;23.490;2022-07-23T01:40:03;4.00;;;3.60;;
10365;SDS011;5229;41.820;23.490;2022-07-23T01:42:31;4.53;;;3.80;;
10365;SDS011;5229;41.820;23.490;2022-07-23T01:44:58;4.00;;;3.60;;
10365;SDS011;5229;41.820;23.490;2022-07-23T01:47:25;4.30;;;3.80;;
10365;SDS011;5229;41.820;23.490;2022-07-23T01:49:52;6.23;;;3.90;;
10365;SDS011;5229;41.820;23.490;2022-07-23T01:52:19;3.93;;;3.53;;
10365;SDS011;5229;41.820;23.490;2022-07-23T01:54:46;6.00;;;3.83;;
10365;SDS011;5229;41.820;23.490;2022-07-23T01:57:14;3.93;;;3.57;;
10365;SDS011;5229;41.820;23.490;2022-07-23T01:59:41;4.10;;;3.70;;
10365;SDS011;5229;41.820;23.490;2022-07-23T02:02:07;5.07;;;3.97;;
10365;SDS011;5229;41.820;23.490;2022-07-23T02:04:34;7.20;;;4.00;;
10365;SDS011;5229;41.820;23.490;2022-07-23T02:07:01;4.33;;;3.60;;
10365;SDS011;5229;41.820;23.490;2022-07-23T02:09:29;6.90;;;3.80;;
10365;SDS011;5229;41.820;23.490;2022-07-23T02:11:56;7.53;;;4.37;;
10365;SDS011;5229;41.820;23.490;2022-07-23T02:14:24;4.03;;;3.63;;
10365;SDS011;5229;41.820;23.490;2022-07-23T02:16:51;7.67;;;3.63;;
10365;SDS011;5229;41.820;23.490;2022-07-23T02:19:18;7.60;;;3.50;;
10365;SDS011;5229;41.820;23.490;2022-07-23T02:21:44;5.27;;;3.47;;
10365;SDS011;5229;41.820;23.490;2022-07-23T02:24:11;4.33;;;3.93;;
10365;SDS011;5229;41.820;23.490;2022-07-23T02:26:38;3.77;;;3.47;;
10365;SDS011;5229;41.820;23.490;2022-07-23T02:29:05;7.23;;;4.30;;
10365;SDS011;5229;41.820;23.490;2022-07-23T02:31:33;8.10;;;3.90;;
10365;SDS011;5229;41.820;23.490;2022-07-23T02:34:01;4.00;;;3.20;;
10365;SDS011;5229;41.820;23.490;2022-07-23T02:36:28;4.80;;;3.50;;
10365;SDS011;5229;41.820;23.490;2022-07-23T02:38:55;3.87;;;3.57;;
10365;SDS011;5229;41.820;23.490;2022-07-23T02:41:22;4.47;;;3.87;;
10365;SDS011;5229;41.820;23.490;2022-07-23T02:43:49;3.83;;;3.40;;
10365;SDS011;5229;41.820;23.490;2022-07-23T02:46:16;5.13;;;3.60;;
10365;SDS011;5229;41.820;23.490;2022-07-23T02:48:44;4.53;;;3.67;;
10365;SDS011;5229;41.820;23.490;2022-07-23T02:51:11;5.30;;;4.67;;
10365;SDS011;5229;41.820;23.490;2022-07-23T02:53:38;4.50;;;4.10;;
10365;SDS011;5229;41.820;23.490;2022-07-23T02:56:05;6.17;;;4.23;;
10365;SDS011;5229;41.820;23.490;2022-07-23T02:58:32;4.33;;;3.93;;
10365;SDS011;5229;41.820;23.490;2022-07-23T03:00:59;5.83;;;3.57;;
10365;SDS011;5229;41.820;23.490;2022-07-23T03:03:26;7.63;;;4.03;;
10365;SDS011;5229;41.820;23.490;2022-07-23T03:05:54;5.20;;;3.43;;
10365;SDS011;5229;41.820;23.490;2022-07-23T03:08:21;4.60;;;3.40;;
10365;SDS011;5229;41.820;23.490;2022-07-23T03:10:48;4.50;;;4.03;;
10365;SDS011;5229;41.820;23.490;2022-07-23T03:13:15;4.23;;;3.50;;
10365;SDS011;5229;41.820;23.490;2022-07-23T03:15:42;5.00;;;4.13;;
10365;SDS011;5229;41.820;23.490;2022-07-23T03:18:09;3.63;;;3.23;;
10365;SDS011;5229;41.820;23.490;2022-07-23T03:20:36;6.43;;;3.67;;
10365;SDS011;5229;41.820;23.490;2022-07-23T03:23:04;3.93;;;3.47;;
10365;SDS011;5229;41.820;23.490;2022-07-23T03:25:31;3.57;;;3.27;;
10365;SDS011;5229;41.820;23.490;2022-07-23T03:27:58;4.27;;;3.53;;
10365;SDS011;5229;41.820;23.490;2022-07-23T03:30:25;3.93;;;3.47;;
10365;SDS011;5229;41.820;23.490;2022-07-23T03:32:52;4.03;;;3.53;;
10365;SDS011;5229;41.820;23.490;2022-07-23T03:35:19;6.00;;;4.23;;
10365;SDS011;5229;41.820;23.490;2022-07-23T03:37:45;4.40;;;4.00;;
10365;SDS011;5229;41.820;23.490;2022-07-23T03:40:14;7.10;;;3.80;;
10365;SDS011;5229;41.820;23.490;2022-07-23T03:42:40;3.90;;;3.50;;
10365;SDS011;5229;41.820;23.490;2022-07-23T03:45:08;4.93;;;4.00;;
10365;SDS011;5229;41.820;23.490;2022-07-23T03:47:36;7.00;;;4.23;;
10365;SDS011;5229;41.820;23.490;2022-07-23T03:50:04;5.43;;;3.97;;
10365;SDS011;5229;41.820;23.490;2022-07-23T03:52:32;4.67;;;3.43;;
10365;SDS011;5229;41.820;23.490;2022-07-23T03:54:59;5.53;;;3.80;;
10365;SDS011;5229;41.820;23.490;2022-07-23T03:57:27;8.17;;;4.57;;
10365;SDS011;5229;41.820;23.490;2022-07-23T03:59:54;4.17;;;3.87;;
10365;SDS011;5229;41.820;23.490;2022-07-23T04:02:20;4.43;;;3.70;;
10365;SDS011;5229;41.820;23.490;2022-07-23T04:04:47;5.83;;;4.20;;
10365;SDS011;5229;41.820;23.490;2022-07-23T04:07:14;8.07;;;3.83;;
10365;SDS011;5229;41.820;23.490;2022-07-23T04:09:42;4.80;;;3.47;;
10365;SDS011;5229;41.820;23.490;2022-07-23T04:12:09;4.73;;;3.77;;
10365;SDS011;5229;41.820;23.490;2022-07-23T04:14:38;5.87;;;3.90;;
10365;SDS011;5229;41.820;23.490;2022-07-23T04:17:04;3.93;;;3.37;;
10365;SDS011;5229;41.820;23.490;2022-07-23T04:19:31;7.23;;;4.03;;
10365;SDS011;5229;41.820;23.490;2022-07-23T04:21:58;5.33;;;4.17;;
10365;SDS011;5229;41.820;23.490;2022-07-23T04:24:25;4.07;;;3.70;;
10365;SDS011;5229;41.820;23.490;2022-07-23T04:26:52;5.30;;;3.40;;
10365;SDS011;5229;41.820;23.490;2022-07-23T04:29:20;5.73;;;4.40;;
10365;SDS011;5229;41.820;23.490;2022-07-23T04:31:48;6.77;;;4.60;;
10365;SDS011;5229;41.820;23.490;2022-07-23T04:34:15;6.00;;;4.53;;
10365;SDS011;5229;41.820;23.490;2022-07-23T04:36:42;5.37;;;4.53;;
10365;SDS011;5229;41.820;23.490;2022-07-23T04:39:09;4.77;;;4.30;;
10365;SDS011;5229;41.820;23.490;2022-07-23T04:41:35;6.53;;;4.90;;
10365;SDS011;5229;41.820;23.490;2022-07-23T04:44:02;6.57;;;4.63;;
10365;SDS011;5229;41.820;23.490;2022-07-23T04:46:30;7.13;;;5.07;;
10365;SDS011;5229;41.820;23.490;2022-07-23T04:48:58;5.00;;;4.50;;
10365;SDS011;5229;41.820;23.490;2022-07-23T04:51:25;4.63;;;4.23;;
10365;SDS011;5229;41.820;23.490;2022-07-23T04:53:51;5.50;;;4.47;;
10365;SDS011;5229;41.820;23.490;2022-07-23T04:56:18;4.70;;;4.30;;
10365;SDS011;5229;41.820;23.490;2022-07-23T04:58:45;5.60;;;5.07;;
10365;SDS011;5229;41.820;23.490;2022-07-23T05:01:12;5.67;;;4.57;;
10365;SDS011;5229;41.820;23.490;2022-07-23T05:03:39;5.57;;;4.57;;
10365;SDS011;5229;41.820;23.490;2022-07-23T05:06:07;5.47;;;5.00;;
10365;SDS011;5229;41.820;23.490;2022-07-23T05:08:34;5.00;;;4.50;;
10365;SDS011;5229;41.820;23.490;2022-07-23T05:11:01;5.87;;;5.13;;
10365;SDS011;5229;41.820;23.490;2022-07-23T05:13:28;5.67;;;5.00;;
10365;SDS011;5229;41.820;23.490;2022-07-23T05:15:55;7.27;;;5.60;;
10365;SDS011;5229;41.820;23.490;2022-07-23T05:18:22;6.75;;;5.32;;
10365;SDS011;5229;41.820;23.490;2022-07-23T05:20:49;7.30;;;5.40;;
10365;SDS011;5229;41.820;23.490;2022-07-23T05:23:17;6.47;;;5.82;;
10365;SDS011;5229;41.820;23.490;2022-07-23T05:25:44;7.63;;;6.90;;
10365;SDS011;5229;41.820;23.490;2022-07-23T05:28:11;7.50;;;6.78;;
10365;SDS011;5229;41.820;23.490;2022-07-23T05:30:37;7.95;;;7.05;;
10365;SDS011;5229;41.820;23.490;2022-07-23T05:33:04;7.75;;;6.93;;
10365;SDS011;5229;41.820;23.490;2022-07-23T05:35:32;6.75;;;6.15;;
10365;SDS011;5229;41.820;23.490;2022-07-23T05:37:59;7.85;;;6.30;;
10365;SDS011;5229;41.820;23.490;2022-07-23T05:40:27;10.82;;;7.38;;
10365;SDS011;5229;41.820;23.490;2022-07-23T05:42:55;7.57;;;6.90;;
10365;SDS011;5229;41.820;23.490;2022-07-23T05:45:21;9.98;;;7.05;;
10365;SDS011;5229;41.820;23.490;2022-07-23T05:47:48;8.88;;;6.97;;
10365;SDS011;5229;41.820;23.490;2022-07-23T05:50:16;8.23;;;7.07;;
10365;SDS011;5229;41.820;23.490;2022-07-23T05:52:43;10.30;;;7.30;;
10365;SDS011;5229;41.820;23.490;2022-07-23T05:55:10;8.23;;;7.40;;
10365;SDS011;5229;41.820;23.490;2022-07-23T05:57:40;8.88;;;7.43;;
10365;SDS011;5229;41.820;23.490;2022-07-23T06:00:08;8.82;;;6.75;;
10365;SDS011;5229;41.820;23.490;2022-07-23T06:02:36;10.25;;;7.07;;
10365;SDS011;5229;41.820;23.490;2022-07-23T06:05:04;10.05;;;7.28;;
10365;SDS011;5229;41.820;23.490;2022-07-23T06:07:32;9.30;;;7.32;;
10365;SDS011;5229;41.820;23.490;2022-07-23T06:10:00;8.30;;;7.50;;
10365;SDS011;5229;41.820;23.490;2022-07-23T06:12:26;8.48;;;7.28;;
10365;SDS011;5229;41.820;23.490;2022-07-23T06:14:55;7.82;;;6.93;;
10365;SDS011;5229;41.820;23.490;2022-07-23T06:17:22;10.35;;;6.95;;
10365;SDS011;5229;41.820;23.490;2022-07-23T06:19:48;10.98;;;7.63;;
10365;SDS011;5229;41.820;23.490;2022-07-23T06:22:15;7.88;;;7.07;;
10365;SDS011;5229;41.820;23.490;2022-07-23T06:24:42;9.27;;;8.02;;
10365;SDS011;5229;41.820;23.490;2022-07-23T06:27:09;8.57;;;7.70;;
10365;SDS011;5229;41.820;23.490;2022-07-23T06:29:36;8.57;;;7.70;;
10365;SDS011;5229;41.820;23.490;2022-07-23T06:32:09;12.13;;;8.18;;
10365;SDS011;5229;41.820;23.490;2022-07-23T06:34:37;8.57;;;7.70;;
10365;SDS011;5229;41.820;23.490;2022-07-23T06:37:04;9.23;;;7.88;;
10365;SDS011;5229;41.820;23.490;2022-07-23T06:39:32;8.85;;;7.68;;
10365;SDS011;5229;41.820;23.490;2022-07-23T06:41:59;9.52;;;7.18;;
10365;SDS011;5229;41.820;23.490;2022-07-23T06:44:27;9.20;;;7.85;;
10365;SDS011;5229;41.820;23.490;2022-07-23T06:46:54;11.05;;;7.45;;
10365;SDS011;5229;41.820;23.490;2022-07-23T06:49:22;9.98;;;7.82;;
10365;SDS011;5229;41.820;23.490;2022-07-23T06:51:49;8.00;;;7.13;;
10365;SDS011;5229;41.820;23.490;2022-07-23T06:54:15;9.07;;;7.25;;
10365;SDS011;5229;41.820;23.490;2022-07-23T06:56:42;9.80;;;7.65;;
10365;SDS011;5229;41.820;23.490;2022-07-23T06:59:09;9.00;;;7.45;;
10365;SDS011;5229;41.820;23.490;2022-07-23T07:01:36;7.93;;;7.00;;
10365;SDS011;5229;41.820;23.490;2022-07-23T07:04:03;8.13;;;7.28;;
10365;SDS011;5229;41.820;23.490;2022-07-23T07:06:31;8.07;;;7.28;;
10365;SDS011;5229;41.820;23.490;2022-07-23T07:08:58;10.82;;;7.00;;
10365;SDS011;5229;41.820;23.490;2022-07-23T07:11:25;7.45;;;6.60;;
10365;SDS011;5229;41.820;23.490;2022-07-23T07:13:52;7.68;;;6.55;;
10365;SDS011;5229;41.820;23.490;2022-07-23T07:16:18;7.68;;;6.25;;
10365;SDS011;5229;41.820;23.490;2022-07-23T07:18:45;8.20;;;7.20;;
10365;SDS011;5229;41.820;23.490;2022-07-23T07:21:12;9.95;;;6.85;;
10365;SDS011;5229;41.820;23.490;2022-07-23T07:23:41;8.90;;;6.80;;
10365;SDS011;5229;41.820;23.490;2022-07-23T07:26:08;6.30;;;5.70;;
10365;SDS011;5229;41.820;23.490;2022-07-23T07:28:35;6.68;;;5.93;;
10365;SDS011;5229;41.820;23.490;2022-07-23T07:31:02;10.63;;;6.60;;
10365;SDS011;5229;41.820;23.490;2022-07-23T07:33:29;6.65;;;5.95;;
10365;SDS011;5229;41.820;23.490;2022-07-23T07:35:56;7.93;;;6.50;;
10365;SDS011;5229;41.820;23.490;2022-07-23T07:38:23;6.75;;;6.03;;
10365;SDS011;5229;41.820;23.490;2022-07-23T07:40:51;9.10;;;6.82;;
10365;SDS011;5229;41.820;23.490;2022-07-23T07:43:18;7.22;;;6.13;;
10365;SDS011;5229;41.820;23.490;2022-07-23T07:45:45;6.75;;;5.85;;
10365;SDS011;5229;41.820;23.490;2022-07-23T07:48:12;6.15;;;5.55;;
10365;SDS011;5229;41.820;23.490;2022-07-23T07:50:41;7.75;;;5.60;;
10365;SDS011;5229;41.820;23.490;2022-07-23T07:53:08;6.82;;;6.13;;
10365;SDS011;5229;41.820;23.490;2022-07-23T07:55:37;8.30;;;6.10;;
10365;SDS011;5229;41.820;23.490;2022-07-23T07:58:07;6.60;;;5.97;;
10365;SDS011;5229;41.820;23.490;2022-07-23T08:00:39;6.22;;;5.63;;
10365;SDS011;5229;41.820;23.490;2022-07-23T08:03:08;6.90;;;6.20;;
10365;SDS011;5229;41.820;23.490;2022-07-23T08:05:35;6.40;;;5.75;;
10365;SDS011;5229;41.820;23.490;2022-07-23T08:08:02;6.03;;;5.43;;
10365;SDS011;5229;41.820;23.490;2022-07-23T08:10:31;6.45;;;5.82;;
10365;SDS011;5229;41.820;23.490;2022-07-23T08:12:59;6.32;;;5.50;;
10365;SDS011;5229;41.820;23.490;2022-07-23T08:15:28;6.10;;;5.32;;
10365;SDS011;5229;41.820;23.490;2022-07-23T08:17:56;7.93;;;6.03;;
10365;SDS011;5229;41.820;23.490;2022-07-23T08:20:24;12.57;;;6.07;;
10365;SDS011;5229;41.820;23.490;2022-07-23T08:22:52;7.18;;;5.60;;
10365;SDS011;5229;41.820;23.490;2022-07-23T08:25:21;6.18;;;5.47;;
10365;SDS011;5229;41.820;23.490;2022-07-23T08:27:49;5.85;;;5.30;;
10365;SDS011;5229;41.820;23.490;2022-07-23T08:30:16;7.75;;;5.32;;
10365;SDS011;5229;41.820;23.490;2022-07-23T08:32:49;8.50;;;5.28;;
10365;SDS011;5229;41.820;23.490;2022-07-23T08:35:17;8.77;;;5.72;;
10365;SDS011;5229;41.820;23.490;2022-07-23T08:37:47;6.10;;;5.55;;
10365;SDS011;5229;41.820;23.490;2022-07-23T08:40:14;5.32;;;4.82;;
10365;SDS011;5229;41.820;23.490;2022-07-23T08:42:41;8.15;;;5.07;;
10365;SDS011;5229;41.820;23.490;2022-07-23T08:45:09;4.97;;;4.28;;
10365;SDS011;5229;41.820;23.490;2022-07-23T08:47:36;4.75;;;4.03;;
10365;SDS011;5229;41.820;23.490;2022-07-23T08:50:06;5.95;;;4.00;;
10365;SDS011;5229;41.820;23.490;2022-07-23T08:52:33;6.22;;;4.40;;
10365;SDS011;5229;41.820;23.490;2022-07-23T08:55:02;5.05;;;4.60;;
10365;SDS011;5229;41.820;23.490;2022-07-23T08:57:29;4.18;;;3.72;;
10365;SDS011;5229;41.820;23.490;2022-07-23T08:59:56;9.40;;;3.75;;
10365;SDS011;5229;41.820;23.490;2022-07-23T09:02:25;4.40;;;3.67;;
10365;SDS011;5229;41.820;23.490;2022-07-23T09:04:54;4.53;;;3.75;;
10365;SDS011;5229;41.820;23.490;2022-07-23T09:07:22;3.85;;;3.53;;
10365;SDS011;5229;41.820;23.490;2022-07-23T09:09:53;4.55;;;3.28;;
10365;SDS011;5229;41.820;23.490;2022-07-23T09:12:31;4.13;;;2.92;;
10365;SDS011;5229;41.820;23.490;2022-07-23T09:14:58;4.50;;;2.53;;
10365;SDS011;5229;41.820;23.490;2022-07-23T09:17:36;3.50;;;2.92;;
10365;SDS011;5229;41.820;23.490;2022-07-23T09:20:07;3.80;;;3.25;;
10365;SDS011;5229;41.820;23.490;2022-07-23T09:22:37;4.40;;;2.85;;
10365;SDS011;5229;41.820;23.490;2022-07-23T09:25:08;5.63;;;2.60;;
10365;SDS011;5229;41.820;23.490;2022-07-23T09:27:47;4.60;;;2.97;;
10365;SDS011;5229;41.820;23.490;2022-07-23T09:30:17;3.55;;;2.88;;
10365;SDS011;5229;41.820;23.490;2022-07-23T09:32:44;3.42;;;2.50;;
10365;SDS011;5229;41.820;23.490;2022-07-23T09:35:43;3.40;;;2.25;;
10365;SDS011;5229;41.820;23.490;2022-07-23T09:38:17;3.15;;;2.25;;
10365;SDS011;5229;41.820;23.490;2022-07-23T09:40:47;2.75;;;2.50;;
10365;SDS011;5229;41.820;23.490;2022-07-23T09:43:32;3.38;;;2.28;;
10365;SDS011;5229;41.820;23.490;2022-07-23T09:48:46;3.60;;;2.28;;
10365;SDS011;5229;41.820;23.490;2022-07-23T09:51:13;2.80;;;2.13;;
10365;SDS011;5229;41.820;23.490;2022-07-23T09:53:42;4.15;;;2.17;;
10365;SDS011;5229;41.820;23.490;2022-07-23T09:56:09;2.78;;;1.98;;
10365;SDS011;5229;41.820;23.490;2022-07-23T09:58:38;3.25;;;2.22;;
10365;SDS011;5229;41.820;23.490;2022-07-23T10:01:11;3.95;;;2.40;;
10365;SDS011;5229;41.820;23.490;2022-07-23T10:03:39;2.97;;;2.10;;
10365;SDS011;5229;41.820;23.490;2022-07-23T10:06:19;6.55;;;2.35;;
10365;SDS011;5229;41.820;23.490;2022-07-23T10:08:47;2.75;;;2.38;;
10365;SDS011;5229;41.820;23.490;2022-07-23T10:11:17;3.60;;;2.15;;
10365;SDS011;5229;41.820;23.490;2022-07-23T10:13:43;2.53;;;2.05;;
10365;SDS011;5229;41.820;23.490;2022-07-23T10:16:15;3.33;;;2.58;;
10365;SDS011;5229;41.820;23.490;2022-07-23T10:18:42;2.40;;;2.20;;
10365;SDS011;5229;41.820;23.490;2022-07-23T10:21:09;2.20;;;2.00;;
10365;SDS011;5229;41.820;23.490;2022-07-23T10:23:43;3.58;;;2.22;;
10365;SDS011;5229;41.820;23.490;2022-07-23T10:26:17;4.82;;;2.45;;
10365;SDS011;5229;41.820;23.490;2022-07-23T10:28:55;2.45;;;2.20;;
10365;SDS011;5229;41.820;23.490;2022-07-23T10:31:31;2.50;;;1.92;;
10365;SDS011;5229;41.820;23.490;2022-07-23T10:34:09;2.92;;;1.95;;
10365;SDS011;5229;41.820;23.490;2022-07-23T10:36:44;3.28;;;2.03;;
10365;SDS011;5229;41.820;23.490;2022-07-23T10:39:17;3.35;;;2.20;;
10365;SDS011;5229;41.820;23.490;2022-07-23T10:41:49;6.25;;;2.53;;
10365;SDS011;5229;41.820;23.490;2022-07-23T10:44:18;3.45;;;2.25;;
10365;SDS011;5229;41.820;23.490;2022-07-23T10:46:54;3.08;;;2.33;;
10365;SDS011;5229;41.820;23.490;2022-07-23T10:49:39;3.80;;;2.17;;
10365;SDS011;5229;41.820;23.490;2022-07-23T10:52:15;3.05;;;1.90;;
10365;SDS011;5229;41.820;23.490;2022-07-23T10:54:46;4.50;;;2.50;;
10365;SDS011;5229;41.820;23.490;2022-07-23T10:57:17;3.00;;;2.10;;
10365;SDS011;5229;41.820;23.490;2022-07-23T11:02:43;3.80;;;2.20;;
10365;SDS011;5229;41.820;23.490;2022-07-23T11:05:11;2.53;;;2.15;;
10365;SDS011;5229;41.820;23.490;2022-07-23T11:10:40;8.40;;;2.90;;
10365;SDS011;5229;41.820;23.490;2022-07-23T11:13:35;5.68;;;2.70;;
10365;SDS011;5229;41.820;23.490;2022-07-23T11:16:24;3.15;;;2.50;;
10365;SDS011;5229;41.820;23.490;2022-07-23T11:18:53;3.15;;;2.40;;
10365;SDS011;5229;41.820;23.490;2022-07-23T11:24:15;4.32;;;2.60;;
10365;SDS011;5229;41.820;23.490;2022-07-23T11:26:48;4.00;;;2.95;;
10365;SDS011;5229;41.820;23.490;2022-07-23T11:35:22;4.18;;;2.50;;
10365;SDS011;5229;41.820;23.490;2022-07-23T11:37:52;3.35;;;2.50;;
10365;SDS011;5229;41.820;23.490;2022-07-23T11:40:23;5.40;;;3.10;;
10365;SDS011;5229;41.820;23.490;2022-07-23T11:42:54;4.05;;;2.78;;
10365;SDS011;5229;41.820;23.490;2022-07-23T11:45:23;3.97;;;3.38;;
10365;SDS011;5229;41.820;23.490;2022-07-23T11:47:54;7.43;;;2.97;;
10365;SDS011;5229;41.820;23.490;2022-07-23T11:50:23;4.13;;;2.63;;
10365;SDS011;5229;41.820;23.490;2022-07-23T11:52:51;3.47;;;2.63;;
10365;SDS011;5229;41.820;23.490;2022-07-23T11:55:18;4.28;;;2.53;;
10365;SDS011;5229;41.820;23.490;2022-07-23T11:57:45;3.03;;;2.72;;
10365;SDS011;5229;41.820;23.490;2022-07-23T12:00:14;3.45;;;2.95;;
10365;SDS011;5229;41.820;23.490;2022-07-23T12:02:44;5.47;;;3.05;;
10365;SDS011;5229;41.820;23.490;2022-07-23T12:05:15;3.15;;;2.88;;
10365;SDS011;5229;41.820;23.490;2022-07-23T12:07:44;3.47;;;2.40;;
10365;SDS011;5229;41.820;23.490;2022-07-23T12:10:15;4.68;;;3.10;;
10365;SDS011;5229;41.820;23.490;2022-07-23T12:12:45;4.55;;;3.00;;
10365;SDS011;5229;41.820;23.490;2022-07-23T12:15:14;4.72;;;2.45;;
10365;SDS011;5229;41.820;23.490;2022-07-23T12:17:44;4.32;;;3.13;;
10365;SDS011;5229;41.820;23.490;2022-07-23T12:20:15;3.20;;;2.65;;
10365;SDS011;5229;41.820;23.490;2022-07-23T12:22:43;6.10;;;2.83;;
10365;SDS011;5229;41.820;23.490;2022-07-23T12:25:12;4.78;;;2.95;;
10365;SDS011;5229;41.820;23.490;2022-07-23T12:27:40;5.68;;;3.75;;
10365;SDS011;5229;41.820;23.490;2022-07-23T12:30:20;7.00;;;3.60;;
10365;SDS011;5229;41.820;23.490;2022-07-23T12:32:49;4.10;;;3.20;;
10365;SDS011;5229;41.820;23.490;2022-07-23T12:35:20;4.60;;;2.72;;
10365;SDS011;5229;41.820;23.490;2022-07-23T12:37:51;4.55;;;3.30;;
10365;SDS011;5229;41.820;23.490;2022-07-23T12:40:27;8.15;;;3.28;;
10365;SDS011;5229;41.820;23.490;2022-07-23T12:43:00;7.68;;;3.30;;
10365;SDS011;5229;41.820;23.490;2022-07-23T12:45:42;4.78;;;3.35;;
10365;SDS011;5229;41.820;23.490;2022-07-23T12:48:23;3.15;;;2.80;;
10365;SDS011;5229;41.820;23.490;2022-07-23T12:50:53;3.95;;;2.90;;
10365;SDS011;5229;41.820;23.490;2022-07-23T12:53:25;6.07;;;3.10;;
10365;SDS011;5229;41.820;23.490;2022-07-23T12:55:57;5.22;;;3.00;;
10365;SDS011;5229;41.820;23.490;2022-07-23T12:58:39;4.22;;;3.03;;
10365;SDS011;5229;41.820;23.490;2022-07-23T13:01:10;7.82;;;3.20;;
10365;SDS011;5229;41.820;23.490;2022-07-23T13:03:55;4.53;;;2.90;;
10365;SDS011;5229;41.820;23.490;2022-07-23T13:06:25;4.88;;;3.20;;
10365;SDS011;5229;41.820;23.490;2022-07-23T13:08:52;5.38;;;3.20;;
10365;SDS011;5229;41.820;23.490;2022-07-23T13:11:19;4.22;;;3.28;;
10365;SDS011;5229;41.820;23.490;2022-07-23T13:13:45;3.83;;;2.85;;
10365;SDS011;5229;41.820;23.490;2022-07-23T13:16:12;5.43;;;3.10;;
10365;SDS011;5229;41.820;23.490;2022-07-23T13:18:39;5.03;;;3.35;;
10365;SDS011;5229;41.820;23.490;2022-07-23T13:21:06;6.70;;;2.88;;
10365;SDS011;5229;41.820;23.490;2022-07-23T13:23:34;6.53;;;3.20;;
10365;SDS011;5229;41.820;23.490;2022-07-23T13:26:01;4.00;;;3.10;;
10365;SDS011;5229;41.820;23.490;2022-07-23T13:28:28;5.97;;;3.25;;
10365;SDS011;5229;41.820;23.490;2022-07-23T13:30:55;3.92;;;2.85;;
10365;SDS011;5229;41.820;23.490;2022-07-23T13:33:23;4.32;;;3.08;;
10365;SDS011;5229;41.820;23.490;2022-07-23T13:35:50;4.38;;;2.72;;
10365;SDS011;5229;41.820;23.490;2022-07-23T13:38:20;6.93;;;3.35;;
10365;SDS011;5229;41.820;23.490;2022-07-23T13:40:49;4.53;;;2.80;;
10365;SDS011;5229;41.820;23.490;2022-07-23T13:43:17;5.07;;;3.40;;
10365;SDS011;5229;41.820;23.490;2022-07-23T13:45:47;7.45;;;3.20;;
10365;SDS011;5229;41.820;23.490;2022-07-23T13:48:14;3.60;;;3.05;;
10365;SDS011;5229;41.820;23.490;2022-07-23T13:50:42;4.82;;;3.10;;
10365;SDS011;5229;41.820;23.490;2022-07-23T13:53:11;3.63;;;3.10;;
10365;SDS011;5229;41.820;23.490;2022-07-23T13:55:40;4.88;;;2.97;;
10365;SDS011;5229;41.820;23.490;2022-07-23T13:58:09;3.55;;;3.13;;
10365;SDS011;5229;41.820;23.490;2022-07-23T14:00:37;6.30;;;3.65;;
10365;SDS011;5229;41.820;23.490;2022-07-23T14:03:06;5.78;;;3.05;;
10365;SDS011;5229;41.820;23.490;2022-07-23T14:05:33;4.15;;;2.88;;
10365;SDS011;5229;41.820;23.490;2022-07-23T14:08:00;4.68;;;3.08;;
10365;SDS011;5229;41.820;23.490;2022-07-23T14:10:27;7.82;;;3.10;;
10365;SDS011;5229;41.820;23.490;2022-07-23T14:12:54;4.55;;;3.30;;
10365;SDS011;5229;41.820;23.490;2022-07-23T14:15:24;4.10;;;3.38;;
10365;SDS011;5229;41.820;23.490;2022-07-23T14:17:53;5.03;;;3.00;;
10365;SDS011;5229;41.820;23.490;2022-07-23T14:20:20;3.83;;;3.13;;
10365;SDS011;5229;41.820;23.490;2022-07-23T14:22:47;3.53;;;2.85;;
10365;SDS011;5229;41.820;23.490;2022-07-23T14:25:15;6.47;;;3.33;;
10365;SDS011;5229;41.820;23.490;2022-07-23T14:27:42;4.70;;;3.42;;
10365;SDS011;5229;41.820;23.490;2022-07-23T14:30:10;6.93;;;3.22;;
10365;SDS011;5229;41.820;23.490;2022-07-23T14:32:42;7.65;;;3.00;;
10365;SDS011;5229;41.820;23.490;2022-07-23T14:35:09;5.72;;;3.55;;
10365;SDS011;5229;41.820;23.490;2022-07-23T14:37:36;5.28;;;3.30;;
10365;SDS011;5229;41.820;23.490;2022-07-23T14:40:05;6.10;;;3.33;;
10365;SDS011;5229;41.820;23.490;2022-07-23T14:42:35;4.28;;;3.15;;
10365;SDS011;5229;41.820;23.490;2022-07-23T14:45:02;4.35;;;3.10;;
10365;SDS011;5229;41.820;23.490;2022-07-23T14:47:30;6.40;;;3.47;;
10365;SDS011;5229;41.820;23.490;2022-07-23T14:49:58;4.60;;;3.28;;
10365;SDS011;5229;41.820;23.490;2022-07-23T14:52:25;5.28;;;3.45;;
10365;SDS011;5229;41.820;23.490;2022-07-23T14:54:52;7.13;;;3.30;;
10365;SDS011;5229;41.820;23.490;2022-07-23T14:57:18;21.02;;;3.63;;
10365;SDS011;5229;41.820;23.490;2022-07-23T14:59:45;6.18;;;3.15;;
10365;SDS011;5229;41.820;23.490;2022-07-23T15:02:12;9.07;;;3.40;;
10365;SDS011;5229;41.820;23.490;2022-07-23T15:04:41;5.03;;;3.28;;
10365;SDS011;5229;41.820;23.490;2022-07-23T15:07:09;3.90;;;3.38;;
10365;SDS011;5229;41.820;23.490;2022-07-23T15:09:36;3.20;;;2.90;;
10365;SDS011;5229;41.820;23.490;2022-07-23T15:12:03;5.97;;;3.70;;
10365;SDS011;5229;41.820;23.490;2022-07-23T15:14:31;6.65;;;3.15;;